Time,TemperatureF,DewpointF,PressureIn,WindDirection,WindDirectionDegrees,WindSpeedMPH,WindSpeedGustMPH,Humidity,HourlyPrecipIn,Conditions,Clouds,dailyrainin,SoftwareType,DateUTC
2013-02-06 00:03:00,21.0,17.0,29.68,ESE,112,9.0,10.0,89,0.00,,,0.00,TxWx,2013-02-06 05:03:00,
2013-02-06 00:08:00,21.0,17.0,29.68,East,90,10.0,11.0,89,0.00,,,0.00,TxWx,2013-02-06 05:08:00,
2013-02-06 00:13:00,21.0,17.0,29.68,ESE,112,13.0,13.0,90,0.00,,,0.00,TxWx,2013-02-06 05:13:00,
2013-02-06 00:18:00,21.0,18.0,29.68,SE,135,11.0,12.0,90,0.00,,,0.00,TxWx,2013-02-06 05:18:00,
2013-02-06 00:23:00,22.0,19.0,29.68,ESE,112,11.0,11.0,91,0.00,,,0.00,TxWx,2013-02-06 05:23:00,
2013-02-06 00:29:00,21.0,18.0,29.68,ESE,112,8.0,11.0,91,0.00,,,0.00,TxWx,2013-02-06 05:29:00,
2013-02-06 00:34:00,21.0,18.0,29.68,SE,135,8.0,10.0,91,0.00,,,0.00,TxWx,2013-02-06 05:34:00,
2013-02-06 00:39:00,21.0,18.0,29.68,ESE,112,8.0,9.0,92,0.00,,,0.00,TxWx,2013-02-06 05:39:00,
2013-02-06 00:44:00,22.0,19.0,29.68,SSE,157,8.0,10.0,92,0.00,,,0.00,TxWx,2013-02-06 05:44:00,
2013-02-06 00:49:00,22.0,19.0,29.68,ESE,112,9.0,12.0,92,0.00,,,0.00,TxWx,2013-02-06 05:49:00,
2013-02-06 00:54:00,22.0,19.0,29.68,SE,135,11.0,12.0,92,0.00,,,0.00,TxWx,2013-02-06 05:54:00,
2013-02-06 00:59:00,22.0,19.0,29.68,ESE,112,13.0,14.0,93,0.00,,,0.00,TxWx,2013-02-06 05:59:00,
2013-02-06 01:04:00,22.0,19.0,29.68,ESE,112,10.0,10.0,93,0.00,,,0.00,TxWx,2013-02-06 06:04:00,
2013-02-06 01:09:00,22.0,19.0,29.68,ESE,112,10.0,10.0,93,0.00,,,0.00,TxWx,2013-02-06 06:09:00,
2013-02-06 01:14:00,22.0,19.0,29.68,ESE,112,8.0,8.0,93,0.00,,,0.00,TxWx,2013-02-06 06:14:00,
2013-02-06 01:19:00,22.0,19.0,29.68,ESE,112,11.0,11.0,94,0.00,,,0.00,TxWx,2013-02-06 06:19:00,
2013-02-06 01:24:00,22.0,19.0,29.68,ESE,112,10.0,11.0,94,0.00,,,0.00,TxWx,2013-02-06 06:24:00,
2013-02-06 01:29:00,22.0,19.0,29.68,ESE,112,10.0,13.0,94,0.00,,,0.00,TxWx,2013-02-06 06:29:00,
2013-02-06 01:35:00,22.0,20.0,29.67,ESE,112,13.0,13.0,94,0.00,,,0.00,TxWx,2013-02-06 06:35:00,
2013-02-06 01:40:00,22.0,20.0,29.67,ESE,112,10.0,11.0,94,0.00,,,0.00,TxWx,2013-02-06 06:40:00,
2013-02-06 01:45:00,22.0,20.0,29.68,East,90,8.0,10.0,94,0.00,,,0.00,TxWx,2013-02-06 06:45:00,
2013-02-06 01:50:00,22.0,20.0,29.68,SE,135,13.0,15.0,94,0.00,,,0.00,TxWx,2013-02-06 06:50:00,
2013-02-06 01:55:00,22.0,20.0,29.68,ESE,112,8.0,11.0,94,0.00,,,0.00,TxWx,2013-02-06 06:55:00,
2013-02-06 02:00:00,22.0,20.0,29.68,ESE,112,11.0,12.0,94,0.00,,,0.00,TxWx,2013-02-06 07:00:00,
2013-02-06 02:05:00,22.0,20.0,29.68,SE,135,8.0,10.0,94,0.00,,,0.00,TxWx,2013-02-06 07:05:00,
2013-02-06 02:10:00,22.0,20.0,29.68,ESE,112,8.0,11.0,94,0.00,,,0.00,TxWx,2013-02-06 07:10:00,
2013-02-06 02:15:00,22.0,20.0,29.68,ESE,112,10.0,11.0,95,0.00,,,0.00,TxWx,2013-02-06 07:15:00,
2013-02-06 02:21:00,22.0,20.0,29.68,ESE,112,10.0,11.0,95,0.00,,,0.00,TxWx,2013-02-06 07:21:00,
2013-02-06 02:26:00,22.0,20.0,29.68,ESE,112,7.0,11.0,95,0.00,,,0.00,TxWx,2013-02-06 07:26:00,
2013-02-06 02:31:00,22.0,20.0,29.68,ESE,112,11.0,13.0,95,0.00,,,0.00,TxWx,2013-02-06 07:31:00,
2013-02-06 02:36:00,22.0,20.0,29.68,ESE,112,8.0,11.0,95,0.00,,,0.00,TxWx,2013-02-06 07:36:00,
2013-02-06 02:41:00,22.0,20.0,29.68,ESE,112,9.0,9.0,95,0.00,,,0.00,TxWx,2013-02-06 07:41:00,
2013-02-06 02:47:00,22.0,20.0,29.68,SE,135,10.0,12.0,95,0.00,,,0.00,TxWx,2013-02-06 07:47:00,
2013-02-06 02:52:00,22.0,20.0,29.68,ESE,112,8.0,10.0,95,0.00,,,0.00,TxWx,2013-02-06 07:52:00,
2013-02-06 02:57:00,22.0,20.0,29.68,ESE,112,10.0,10.0,95,0.00,,,0.00,TxWx,2013-02-06 07:57:00,
2013-02-06 03:02:00,22.0,20.0,29.68,ESE,112,8.0,10.0,96,0.00,,,0.00,TxWx,2013-02-06 08:02:00,
2013-02-06 03:07:00,22.0,20.0,29.68,ESE,112,10.0,11.0,96,0.00,,,0.00,TxWx,2013-02-06 08:07:00,
2013-02-06 03:12:00,22.0,20.0,29.68,SE,135,10.0,10.0,96,0.00,,,0.00,TxWx,2013-02-06 08:12:00,
2013-02-06 03:18:00,22.0,20.0,29.68,ESE,112,10.0,10.0,96,0.00,,,0.00,TxWx,2013-02-06 08:18:00,
2013-02-06 03:23:00,22.0,20.0,29.68,SE,135,9.0,9.0,96,0.00,,,0.00,TxWx,2013-02-06 08:23:00,
2013-02-06 03:28:00,22.0,20.0,29.68,SE,135,12.0,12.0,96,0.00,,,0.00,TxWx,2013-02-06 08:28:00,
2013-02-06 03:33:00,22.0,20.0,29.68,ESE,112,10.0,11.0,96,0.00,,,0.00,TxWx,2013-02-06 08:33:00,
2013-02-06 03:38:00,22.0,20.0,29.69,SE,135,4.0,5.0,96,0.00,,,0.00,TxWx,2013-02-06 08:38:00,
2013-02-06 03:43:00,22.0,20.0,29.69,SSW,202,5.0,6.0,96,0.00,,,0.00,TxWx,2013-02-06 08:43:00,
2013-02-06 03:48:00,22.0,20.0,29.69,SSW,202,7.0,7.0,97,0.00,,,0.00,TxWx,2013-02-06 08:48:00,
2013-02-06 03:53:00,22.0,20.0,29.69,South,180,6.0,8.0,97,0.00,,,0.00,TxWx,2013-02-06 08:53:00,
2013-02-06 03:58:00,22.0,20.0,29.69,SSE,157,5.0,5.0,97,0.00,,,0.00,TxWx,2013-02-06 08:58:00,
2013-02-06 04:04:00,22.0,20.0,29.69,SSE,157,6.0,6.0,97,0.00,,,0.00,TxWx,2013-02-06 09:04:00,
2013-02-06 04:09:00,22.0,20.0,29.70,ESE,112,8.0,8.0,97,0.00,,,0.00,TxWx,2013-02-06 09:09:00,
2013-02-06 04:14:00,22.0,20.0,29.70,SE,135,6.0,6.0,98,0.00,,,0.00,TxWx,2013-02-06 09:14:00,
2013-02-06 04:19:00,22.0,20.0,29.71,SSE,157,6.0,7.0,98,0.00,,,0.00,TxWx,2013-02-06 09:19:00,
2013-02-06 04:24:00,22.0,20.0,29.71,SSE,157,5.0,6.0,98,0.00,,,0.00,TxWx,2013-02-06 09:24:00,
2013-02-06 04:29:00,22.0,21.0,29.70,East,90,4.0,5.0,98,0.00,,,0.00,TxWx,2013-02-06 09:29:00,
2013-02-06 04:34:00,22.0,21.0,29.71,ESE,112,6.0,8.0,98,0.00,,,0.00,TxWx,2013-02-06 09:34:00,
2013-02-06 04:39:00,22.0,21.0,29.71,SE,135,6.0,6.0,99,0.00,,,0.00,TxWx,2013-02-06 09:39:00,
2013-02-06 04:44:00,22.0,21.0,29.71,ESE,112,6.0,8.0,99,0.00,,,0.00,TxWx,2013-02-06 09:44:00,
2013-02-06 04:49:00,22.0,21.0,29.72,SE,135,6.0,7.0,99,0.00,,,0.00,TxWx,2013-02-06 09:49:00,
2013-02-06 04:54:00,22.0,21.0,29.72,ESE,112,6.0,6.0,99,0.00,,,0.00,TxWx,2013-02-06 09:54:00,
2013-02-06 04:59:00,22.0,21.0,29.72,SSE,157,6.0,6.0,99,0.00,,,0.00,TxWx,2013-02-06 09:59:00,
2013-02-06 05:04:00,22.0,22.0,29.73,SSE,157,5.0,6.0,100,0.00,,,0.00,TxWx,2013-02-06 10:04:00,
2013-02-06 05:09:00,22.0,22.0,29.73,SE,135,6.0,6.0,100,0.00,,,0.00,TxWx,2013-02-06 10:09:00,
2013-02-06 05:14:00,23.0,23.0,29.73,SSE,157,6.0,9.0,100,0.00,,,0.00,TxWx,2013-02-06 10:14:00,
2013-02-06 05:20:00,23.0,23.0,29.73,SSE,157,5.0,5.0,100,0.00,,,0.00,TxWx,2013-02-06 10:20:00,
2013-02-06 05:25:00,23.0,22.0,29.74,South,180,5.0,5.0,99,0.00,,,0.00,TxWx,2013-02-06 10:25:00,
2013-02-06 05:30:00,23.0,22.0,29.74,SSE,157,4.0,4.0,99,0.00,,,0.00,TxWx,2013-02-06 10:30:00,
2013-02-06 05:35:00,23.0,21.0,29.74,ESE,112,3.0,5.0,98,0.00,,,0.00,TxWx,2013-02-06 10:35:00,
2013-02-06 05:40:00,23.0,21.0,29.73,ESE,112,3.0,4.0,97,0.00,,,0.00,TxWx,2013-02-06 10:40:00,
2013-02-06 05:45:00,22.0,20.0,29.74,ESE,112,4.0,4.0,97,0.00,,,0.00,TxWx,2013-02-06 10:45:00,
2013-02-06 05:50:00,22.0,20.0,29.74,ESE,112,4.0,5.0,97,0.00,,,0.00,TxWx,2013-02-06 10:50:00,
2013-02-06 05:55:00,22.0,21.0,29.74,ESE,112,5.0,5.0,98,0.00,,,0.00,TxWx,2013-02-06 10:55:00,
2013-02-06 06:00:00,21.0,20.0,29.74,ESE,112,6.0,6.0,98,0.00,,,0.00,TxWx,2013-02-06 11:00:00,
2013-02-06 06:05:00,22.0,21.0,29.74,SE,135,3.0,3.0,99,0.00,,,0.00,TxWx,2013-02-06 11:05:00,
2013-02-06 06:10:00,21.0,20.0,29.74,ESE,112,4.0,5.0,99,0.00,,,0.00,TxWx,2013-02-06 11:10:00,
2013-02-06 06:15:00,22.0,21.0,29.75,ESE,112,4.0,5.0,99,0.00,,,0.00,TxWx,2013-02-06 11:15:00,
2013-02-06 06:21:00,22.0,21.0,29.75,SE,135,3.0,4.0,99,0.00,,,0.00,TxWx,2013-02-06 11:21:00,
2013-02-06 06:26:00,22.0,22.0,29.75,SSE,157,3.0,4.0,100,0.00,,,0.00,TxWx,2013-02-06 11:26:00,
2013-02-06 06:31:00,22.0,22.0,29.75,SSE,157,4.0,5.0,100,0.00,,,0.00,TxWx,2013-02-06 11:31:00,
2013-02-06 06:36:00,23.0,23.0,29.76,SSW,202,6.0,6.0,100,0.00,,,0.00,TxWx,2013-02-06 11:36:00,
2013-02-06 06:41:00,23.0,22.0,29.76,SSE,157,2.0,3.0,99,0.00,,,0.00,TxWx,2013-02-06 11:41:00,
2013-02-06 06:46:00,24.0,22.0,29.75,SSW,202,6.0,8.0,97,0.00,,,0.00,TxWx,2013-02-06 11:46:00,
2013-02-06 06:51:00,24.0,22.0,29.76,SSW,202,4.0,7.0,95,0.00,,,0.00,TxWx,2013-02-06 11:51:00,
2013-02-06 06:56:00,24.0,21.0,29.76,SSW,202,11.0,12.0,92,0.00,,,0.00,TxWx,2013-02-06 11:56:00,
2013-02-06 07:01:00,24.0,21.0,29.77,SSW,202,6.0,6.0,91,0.00,,,0.00,TxWx,2013-02-06 12:01:00,
2013-02-06 07:06:00,25.0,21.0,29.77,SW,225,2.0,3.0,89,0.00,,,0.00,TxWx,2013-02-06 12:06:00,
2013-02-06 07:11:00,24.0,20.0,29.77,SW,225,7.0,8.0,89,0.00,,,0.00,TxWx,2013-02-06 12:11:00,
2013-02-06 07:16:00,24.0,20.0,29.77,SW,225,8.0,10.0,88,0.00,,,0.00,TxWx,2013-02-06 12:16:00,
2013-02-06 07:22:00,25.0,21.0,29.78,SSW,202,5.0,5.0,87,0.00,,,0.00,TxWx,2013-02-06 12:22:00,
2013-02-06 07:27:00,24.0,19.0,29.78,SSW,202,6.0,8.0,86,0.00,,,0.00,TxWx,2013-02-06 12:27:00,
2013-02-06 07:32:00,24.0,19.0,29.78,SW,225,7.0,10.0,86,0.00,,,0.00,TxWx,2013-02-06 12:32:00,
2013-02-06 07:37:00,24.0,19.0,29.78,SSW,202,6.0,6.0,86,0.00,,,0.00,TxWx,2013-02-06 12:37:00,
2013-02-06 07:42:00,24.0,19.0,29.78,South,180,6.0,7.0,86,0.00,,,0.00,TxWx,2013-02-06 12:42:00,
2013-02-06 07:47:00,24.0,19.0,29.78,South,180,4.0,6.0,86,0.00,,,0.00,TxWx,2013-02-06 12:47:00,
2013-02-06 07:52:00,24.0,19.0,29.78,SSW,202,5.0,6.0,86,0.00,,,0.00,TxWx,2013-02-06 12:52:00,
2013-02-06 07:57:00,24.0,20.0,29.78,SE,135,4.0,4.0,87,0.00,,,0.00,TxWx,2013-02-06 12:57:00,
2013-02-06 08:02:00,23.0,19.0,29.79,SSE,157,6.0,7.0,89,0.00,,,0.00,TxWx,2013-02-06 13:02:00,
2013-02-06 08:07:00,23.0,19.0,29.79,SSE,157,5.0,5.0,90,0.00,,,0.00,TxWx,2013-02-06 13:07:00,
2013-02-06 08:12:00,23.0,20.0,29.79,ESE,112,6.0,6.0,90,0.00,,,0.00,TxWx,2013-02-06 13:12:00,
2013-02-06 08:17:00,23.0,20.0,29.79,SE,135,5.0,6.0,92,0.00,,,0.00,TxWx,2013-02-06 13:17:00,
2013-02-06 08:22:00,22.0,19.0,29.79,SE,135,5.0,7.0,93,0.00,,,0.00,TxWx,2013-02-06 13:22:00,
2013-02-06 08:27:00,23.0,20.0,29.79,ESE,112,6.0,6.0,94,0.00,,,0.00,TxWx,2013-02-06 13:27:00,
2013-02-06 08:33:00,23.0,21.0,29.79,SE,135,6.0,6.0,94,0.00,,,0.00,TxWx,2013-02-06 13:33:00,
2013-02-06 08:38:00,23.0,21.0,29.79,SE,135,5.0,6.0,95,0.00,,,0.00,TxWx,2013-02-06 13:38:00,
2013-02-06 08:43:00,23.0,21.0,29.79,SE,135,7.0,7.0,95,0.00,,,0.00,TxWx,2013-02-06 13:43:00,
2013-02-06 08:48:00,23.0,21.0,29.79,SSE,157,5.0,7.0,95,0.00,,,0.00,TxWx,2013-02-06 13:48:00,
2013-02-06 08:53:00,24.0,22.0,29.79,South,180,6.0,8.0,95,0.00,,,0.00,TxWx,2013-02-06 13:53:00,
2013-02-06 08:58:00,24.0,22.0,29.79,SSW,202,5.0,6.0,94,0.00,,,0.00,TxWx,2013-02-06 13:58:00,
2013-02-06 09:03:00,24.0,21.0,29.79,South,180,6.0,8.0,93,0.00,,,0.00,TxWx,2013-02-06 14:03:00,
2013-02-06 09:08:00,25.0,22.0,29.79,SSE,157,6.0,6.0,92,0.00,,,0.00,TxWx,2013-02-06 14:08:00,
2013-02-06 09:13:00,25.0,22.0,29.79,SSE,157,6.0,6.0,91,0.00,,,0.00,TxWx,2013-02-06 14:13:00,
2013-02-06 09:18:00,25.0,21.0,29.80,South,180,6.0,7.0,90,0.00,,,0.00,TxWx,2013-02-06 14:18:00,
2013-02-06 09:23:00,25.0,21.0,29.80,SE,135,5.0,6.0,89,0.00,,,0.00,TxWx,2013-02-06 14:23:00,
2013-02-06 09:28:00,25.0,21.0,29.80,South,180,8.0,10.0,88,0.00,,,0.00,TxWx,2013-02-06 14:28:00,
2013-02-06 09:33:00,25.0,21.0,29.81,SE,135,7.0,7.0,87,0.00,,,0.00,TxWx,2013-02-06 14:33:00,
2013-02-06 09:39:00,25.0,21.0,29.81,SSE,157,11.0,12.0,87,0.00,,,0.00,TxWx,2013-02-06 14:39:00,
2013-02-06 09:44:00,25.0,21.0,29.81,SE,135,6.0,7.0,87,0.00,,,0.00,TxWx,2013-02-06 14:44:00,
2013-02-06 09:49:00,25.0,21.0,29.81,South,180,8.0,11.0,87,0.00,,,0.00,TxWx,2013-02-06 14:49:00,
2013-02-06 09:54:00,26.0,21.0,29.81,South,180,6.0,6.0,87,0.00,,,0.00,TxWx,2013-02-06 14:54:00,
2013-02-06 09:59:00,26.0,22.0,29.82,SSW,202,9.0,9.0,87,0.00,,,0.00,TxWx,2013-02-06 14:59:00,
2013-02-06 10:04:00,26.0,21.0,29.82,South,180,9.0,10.0,85,0.00,,,0.00,TxWx,2013-02-06 15:04:00,
2013-02-06 10:09:00,26.0,21.0,29.82,SSW,202,14.0,15.0,84,0.00,,,0.00,TxWx,2013-02-06 15:09:00,
2013-02-06 10:14:00,27.0,22.0,29.82,SSW,202,6.0,8.0,83,0.00,,,0.00,TxWx,2013-02-06 15:14:00,
2013-02-06 10:19:00,26.0,20.0,29.82,SSW,202,8.0,10.0,82,0.00,,,0.00,TxWx,2013-02-06 15:19:00,
2013-02-06 10:24:00,26.0,20.0,29.82,SSW,202,6.0,6.0,82,0.00,,,0.00,TxWx,2013-02-06 15:24:00,
2013-02-06 10:29:00,26.0,20.0,29.83,SSW,202,11.0,11.0,82,0.00,,,0.00,TxWx,2013-02-06 15:29:00,
2013-02-06 10:34:00,26.0,20.0,29.83,SSW,202,6.0,8.0,82,0.00,,,0.00,TxWx,2013-02-06 15:34:00,
2013-02-06 10:39:00,26.0,20.0,29.83,SW,225,9.0,9.0,82,0.00,,,0.00,TxWx,2013-02-06 15:39:00,
2013-02-06 10:44:00,26.0,20.0,29.84,SW,225,18.0,18.0,82,0.00,,,0.00,TxWx,2013-02-06 15:44:00,
2013-02-06 10:49:00,26.0,20.0,29.83,SSW,202,8.0,12.0,82,0.00,,,0.00,TxWx,2013-02-06 15:49:00,
2013-02-06 10:55:00,26.0,20.0,29.84,SSW,202,5.0,6.0,83,0.00,,,0.00,TxWx,2013-02-06 15:55:00,
2013-02-06 11:00:00,26.0,21.0,29.84,SSW,202,5.0,8.0,83,0.00,,,0.00,TxWx,2013-02-06 16:00:00,
2013-02-06 11:05:00,26.0,21.0,29.84,West,270,8.0,12.0,84,0.00,,,0.00,TxWx,2013-02-06 16:05:00,
2013-02-06 11:10:00,26.0,21.0,29.84,SSW,202,10.0,13.0,83,0.00,,,0.00,TxWx,2013-02-06 16:10:00,
2013-02-06 11:15:00,26.0,20.0,29.84,WSW,247,10.0,11.0,82,0.00,,,0.00,TxWx,2013-02-06 16:15:00,
2013-02-06 11:20:00,26.0,20.0,29.84,WSW,247,10.0,12.0,82,0.00,,,0.00,TxWx,2013-02-06 16:20:00,
2013-02-06 11:25:00,26.0,20.0,29.84,SW,225,5.0,5.0,83,0.00,,,0.00,TxWx,2013-02-06 16:25:00,
2013-02-06 11:30:00,26.0,21.0,29.84,WSW,247,15.0,19.0,83,0.00,,,0.00,TxWx,2013-02-06 16:30:00,
2013-02-06 11:35:00,26.0,21.0,29.85,West,270,9.0,11.0,84,0.00,,,0.00,TxWx,2013-02-06 16:35:00,
2013-02-06 11:40:00,25.0,20.0,29.85,SW,225,11.0,17.0,84,0.00,,,0.00,TxWx,2013-02-06 16:40:00,
2013-02-06 11:45:00,25.0,21.0,29.85,SW,225,17.0,23.0,84,0.00,,,0.00,TxWx,2013-02-06 16:45:00,
2013-02-06 11:50:00,26.0,21.0,29.85,West,270,10.0,16.0,83,0.00,,,0.00,TxWx,2013-02-06 16:50:00,
2013-02-06 11:56:00,25.0,20.0,29.85,SW,225,12.0,16.0,82,0.00,,,0.00,TxWx,2013-02-06 16:56:00,
2013-02-06 12:01:00,26.0,20.0,29.85,WSW,247,11.0,11.0,82,0.00,,,0.00,TxWx,2013-02-06 17:01:00,
2013-02-06 12:06:00,26.0,20.0,29.85,West,270,14.0,14.0,82,0.00,,,0.00,TxWx,2013-02-06 17:06:00,
2013-02-06 12:11:00,26.0,20.0,29.86,WSW,247,8.0,11.0,82,0.00,,,0.00,TxWx,2013-02-06 17:11:00,
2013-02-06 12:16:00,26.0,20.0,29.86,SW,225,8.0,13.0,80,0.00,,,0.00,TxWx,2013-02-06 17:16:00,
2013-02-06 12:21:00,26.0,20.0,29.86,West,270,10.0,13.0,80,0.00,,,0.00,TxWx,2013-02-06 17:21:00,
2013-02-06 12:26:00,26.0,20.0,29.86,WSW,247,15.0,16.0,80,0.00,,,0.00,TxWx,2013-02-06 17:26:00,
2013-02-06 12:31:00,26.0,19.0,29.86,WSW,247,13.0,16.0,79,0.00,,,0.00,TxWx,2013-02-06 17:31:00,
2013-02-06 12:36:00,27.0,20.0,29.86,SW,225,9.0,14.0,78,0.00,,,0.00,TxWx,2013-02-06 17:36:00,
2013-02-06 12:41:00,27.0,19.0,29.86,WSW,247,10.0,13.0,76,0.00,,,0.00,TxWx,2013-02-06 17:41:00,
2013-02-06 12:46:00,27.0,18.0,29.86,WSW,247,10.0,14.0,73,0.00,,,0.00,TxWx,2013-02-06 17:46:00,
2013-02-06 12:51:00,27.0,18.0,29.86,WSW,247,8.0,13.0,73,0.00,,,0.00,TxWx,2013-02-06 17:51:00,
2013-02-06 12:56:00,27.0,18.0,29.87,WSW,247,16.0,19.0,73,0.00,,,0.00,TxWx,2013-02-06 17:56:00,
2013-02-06 13:02:00,26.0,17.0,29.87,SW,225,11.0,27.0,73,0.00,,,0.00,TxWx,2013-02-06 18:02:00,
2013-02-06 13:07:00,26.0,17.0,29.88,SW,225,19.0,23.0,70,0.00,,,0.00,TxWx,2013-02-06 18:07:00,
2013-02-06 13:12:00,26.0,16.0,29.88,SW,225,17.0,21.0,70,0.00,,,0.00,TxWx,2013-02-06 18:12:00,
2013-02-06 13:17:00,26.0,16.0,29.88,WSW,247,24.0,28.0,68,0.00,,,0.00,TxWx,2013-02-06 18:17:00,
2013-02-06 13:22:00,26.0,16.0,29.88,WSW,247,13.0,14.0,67,0.00,,,0.00,TxWx,2013-02-06 18:22:00,
2013-02-06 13:27:00,25.0,14.0,29.88,WSW,247,11.0,22.0,66,0.00,,,0.00,TxWx,2013-02-06 18:27:00,
2013-02-06 13:32:00,25.0,14.0,29.88,WSW,247,10.0,18.0,67,0.00,,,0.00,TxWx,2013-02-06 18:32:00,
2013-02-06 13:37:00,25.0,14.0,29.88,SW,225,11.0,23.0,66,0.00,,,0.00,TxWx,2013-02-06 18:37:00,
2013-02-06 13:42:00,24.0,13.0,29.89,SW,225,13.0,23.0,65,0.00,,,0.00,TxWx,2013-02-06 18:42:00,
2013-02-06 13:47:00,24.0,12.0,29.89,West,270,16.0,20.0,62,0.00,,,0.00,TxWx,2013-02-06 18:47:00,
2013-02-06 13:52:00,25.0,12.0,29.90,SSW,202,11.0,19.0,60,0.00,,,0.00,TxWx,2013-02-06 18:52:00,
2013-02-06 13:58:00,25.0,11.0,29.90,WSW,247,12.0,16.0,56,0.00,,,0.00,TxWx,2013-02-06 18:58:00,
2013-02-06 14:00:00,14.0,6.0,30.14,SW,225,6.0,7.0,73,0.00,,,0.00,TxWx,2013-02-06 19:00:00,
2013-02-06 14:01:00,15.0,7.0,30.15,West,270,6.0,10.0,73,0.00,,,0.00,TxWx,2013-02-06 19:01:00,
2013-02-06 14:02:00,14.0,6.0,30.15,WSW,247,8.0,8.0,73,0.00,,,0.00,TxWx,2013-02-06 19:02:00,
2013-02-06 14:03:00,25.0,11.0,29.90,SW,225,16.0,16.0,56,0.00,,,0.00,TxWx,2013-02-06 19:03:00,
2013-02-06 14:08:00,25.0,10.0,29.90,SW,225,12.0,17.0,56,0.00,,,0.00,TxWx,2013-02-06 19:08:00,
2013-02-06 14:13:00,25.0,9.0,29.90,SW,225,19.0,23.0,54,0.00,,,0.00,TxWx,2013-02-06 19:13:00,
2013-02-06 14:18:00,24.0,8.0,29.90,SW,225,22.0,22.0,53,0.00,,,0.00,TxWx,2013-02-06 19:18:00,
2013-02-06 14:23:00,24.0,9.0,29.91,WSW,247,13.0,23.0,54,0.00,,,0.00,TxWx,2013-02-06 19:23:00,
2013-02-06 14:28:00,25.0,9.0,29.91,West,270,9.0,14.0,53,0.00,,,0.00,TxWx,2013-02-06 19:28:00,
2013-02-06 14:33:00,25.0,9.0,29.91,SW,225,11.0,14.0,52,0.00,,,0.00,TxWx,2013-02-06 19:33:00,
2013-02-06 14:38:00,25.0,9.0,29.91,West,270,13.0,21.0,53,0.00,,,0.00,TxWx,2013-02-06 19:38:00,
2013-02-06 14:43:00,25.0,10.0,29.91,West,270,8.0,13.0,54,0.00,,,0.00,TxWx,2013-02-06 19:43:00,
2013-02-06 14:48:00,25.0,9.0,29.92,SW,225,17.0,19.0,54,0.00,,,0.00,TxWx,2013-02-06 19:48:00,
2013-02-06 14:54:00,25.0,10.0,29.93,SW,225,16.0,16.0,55,0.00,,,0.00,TxWx,2013-02-06 19:54:00,
2013-02-06 14:59:00,25.0,10.0,29.93,NW,315,8.0,12.0,54,0.00,,,0.00,TxWx,2013-02-06 19:59:00,
2013-02-06 15:04:00,25.0,9.0,29.93,West,270,8.0,22.0,53,0.00,,,0.00,TxWx,2013-02-06 20:04:00,
2013-02-06 15:09:00,24.0,8.0,29.94,WSW,247,13.0,14.0,53,0.00,,,0.00,TxWx,2013-02-06 20:09:00,
2013-02-06 15:14:00,25.0,9.0,29.94,SSW,202,22.0,22.0,52,0.00,,,0.00,TxWx,2013-02-06 20:14:00,
2013-02-06 15:19:00,25.0,9.0,29.94,West,270,8.0,13.0,53,0.00,,,0.00,TxWx,2013-02-06 20:19:00,
2013-02-06 15:24:00,24.0,7.0,29.94,West,270,14.0,25.0,51,0.00,,,0.00,TxWx,2013-02-06 20:24:00,
2013-02-06 15:29:00,24.0,7.0,29.95,West,270,6.0,11.0,51,0.00,,,0.00,TxWx,2013-02-06 20:29:00,
2013-02-06 15:34:00,25.0,8.0,29.95,WSW,247,6.0,9.0,51,0.00,,,0.00,TxWx,2013-02-06 20:34:00,
2013-02-06 15:39:00,25.0,7.0,29.95,West,270,11.0,18.0,49,0.00,,,0.00,TxWx,2013-02-06 20:39:00,
2013-02-06 15:44:00,25.0,7.0,29.95,WSW,247,8.0,8.0,48,0.00,,,0.00,TxWx,2013-02-06 20:44:00,
2013-02-06 15:49:00,25.0,7.0,29.95,WSW,247,5.0,13.0,49,0.00,,,0.00,TxWx,2013-02-06 20:49:00,
2013-02-06 15:53:00,13.0,6.0,30.14,West,270,6.0,6.0,77,0.00,,,0.00,TxWx,2013-02-06 20:53:00,
2013-02-06 15:54:00,25.0,7.0,29.96,WSW,247,5.0,11.0,49,0.00,,,0.00,TxWx,2013-02-06 20:54:00,
2013-02-06 15:55:00,13.0,6.0,30.15,West,270,5.0,6.0,77,0.00,,,0.00,TxWx,2013-02-06 20:55:00,
2013-02-06 15:56:00,13.0,6.0,30.15,WNW,292,5.0,7.0,77,0.00,,,0.00,TxWx,2013-02-06 20:56:00,
2013-02-06 16:00:00,25.0,8.0,29.96,SW,225,14.0,14.0,49,0.00,,,0.00,TxWx,2013-02-06 21:00:00,
2013-02-06 16:05:00,24.0,6.0,29.96,SW,225,10.0,21.0,49,0.00,,,0.00,TxWx,2013-02-06 21:05:00,
2013-02-06 16:07:00,13.0,6.0,30.14,West,270,6.0,7.0,77,0.00,,,0.00,TxWx,2013-02-06 21:07:00,
2013-02-06 16:08:00,13.0,6.0,30.14,WNW,292,5.0,5.0,77,0.00,,,0.00,TxWx,2013-02-06 21:08:00,
2013-02-06 16:09:00,12.0,5.0,30.14,WNW,292,6.0,6.0,77,0.00,,,0.00,TxWx,2013-02-06 21:09:00,
2013-02-06 16:10:00,24.0,6.0,29.96,WSW,247,8.0,9.0,49,0.00,,,0.00,TxWx,2013-02-06 21:10:00,
2013-02-06 16:11:00,12.0,5.0,30.14,West,270,5.0,5.0,77,0.00,,,0.00,TxWx,2013-02-06 21:11:00,
2013-02-06 16:12:00,12.0,5.0,30.14,NW,315,5.0,5.0,77,0.00,,,0.00,TxWx,2013-02-06 21:12:00,
2013-02-06 16:13:00,13.0,6.0,30.14,WNW,292,5.0,6.0,77,0.00,,,0.00,TxWx,2013-02-06 21:13:00,
2013-02-06 16:14:00,12.0,5.0,30.14,West,270,6.0,6.0,77,0.00,,,0.00,TxWx,2013-02-06 21:14:00,
2013-02-06 16:15:00,24.0,6.0,29.97,WSW,247,8.0,16.0,49,0.00,,,0.00,TxWx,2013-02-06 21:15:00,
2013-02-06 16:17:00,12.0,5.0,30.14,West,270,7.0,8.0,77,0.00,,,0.00,TxWx,2013-02-06 21:17:00,
2013-02-06 16:18:00,13.0,6.0,30.14,WNW,292,6.0,7.0,77,0.00,,,0.00,TxWx,2013-02-06 21:18:00,
2013-02-06 16:20:00,23.0,5.0,29.97,SW,225,13.0,13.0,48,0.00,,,0.00,TxWx,2013-02-06 21:20:00,
2013-02-06 16:25:00,24.0,6.0,29.98,West,270,11.0,13.0,48,0.00,,,0.00,TxWx,2013-02-06 21:25:00,
2013-02-06 16:30:00,23.0,5.0,29.98,WSW,247,13.0,13.0,47,0.00,,,0.00,TxWx,2013-02-06 21:30:00,
2013-02-06 16:35:00,23.0,5.0,29.98,WSW,247,6.0,6.0,47,0.00,,,0.00,TxWx,2013-02-06 21:35:00,
2013-02-06 16:40:00,23.0,4.0,29.98,SW,225,14.0,23.0,46,0.00,,,0.00,TxWx,2013-02-06 21:40:00,
2013-02-06 16:45:00,23.0,4.0,29.98,SSW,202,13.0,14.0,46,0.00,,,0.00,TxWx,2013-02-06 21:45:00,
2013-02-06 16:50:00,22.0,3.0,29.99,WNW,292,10.0,11.0,45,0.00,,,0.00,TxWx,2013-02-06 21:50:00,
2013-02-06 16:55:00,22.0,3.0,29.99,WSW,247,15.0,15.0,45,0.00,,,0.00,TxWx,2013-02-06 21:55:00,
2013-02-06 17:01:00,22.0,2.0,29.99,SW,225,11.0,15.0,44,0.00,,,0.00,TxWx,2013-02-06 22:01:00,
2013-02-06 17:06:00,22.0,3.0,30.00,SW,225,13.0,14.0,45,0.00,,,0.00,TxWx,2013-02-06 22:06:00,
2013-02-06 17:11:00,22.0,2.0,30.00,WSW,247,14.0,15.0,44,0.00,,,0.00,TxWx,2013-02-06 22:11:00,
2013-02-06 17:16:00,22.0,2.0,30.00,SSW,202,18.0,18.0,44,0.00,,,0.00,TxWx,2013-02-06 22:16:00,
2013-02-06 17:21:00,22.0,2.0,30.00,WSW,247,14.0,21.0,44,0.00,,,0.00,TxWx,2013-02-06 22:21:00,
2013-02-06 17:26:00,21.0,1.0,30.00,SW,225,15.0,15.0,43,0.00,,,0.00,TxWx,2013-02-06 22:26:00,
2013-02-06 17:31:00,21.0,1.0,30.01,WSW,247,13.0,19.0,44,0.00,,,0.00,TxWx,2013-02-06 22:31:00,
2013-02-06 17:36:00,21.0,1.0,30.01,WSW,247,12.0,14.0,44,0.00,,,0.00,TxWx,2013-02-06 22:36:00,
2013-02-06 17:41:00,21.0,1.0,30.02,WNW,292,7.0,12.0,44,0.00,,,0.00,TxWx,2013-02-06 22:41:00,
2013-02-06 17:46:00,21.0,1.0,30.02,West,270,9.0,15.0,44,0.00,,,0.00,TxWx,2013-02-06 22:46:00,
2013-02-06 17:51:00,21.0,1.0,30.03,SSW,202,8.0,10.0,44,0.00,,,0.00,TxWx,2013-02-06 22:51:00,
2013-02-06 17:57:00,21.0,2.0,30.03,West,270,11.0,11.0,45,0.00,,,0.00,TxWx,2013-02-06 22:57:00,
2013-02-06 18:02:00,21.0,2.0,30.03,WSW,247,14.0,23.0,45,0.00,,,0.00,TxWx,2013-02-06 23:02:00,
2013-02-06 18:07:00,21.0,2.0,30.04,WSW,247,21.0,24.0,46,0.00,,,0.00,TxWx,2013-02-06 23:07:00,
2013-02-06 18:12:00,20.0,1.0,30.04,WSW,247,9.0,13.0,46,0.00,,,0.00,TxWx,2013-02-06 23:12:00,
2013-02-06 18:17:00,20.0,2.0,30.04,West,270,10.0,10.0,46,0.00,,,0.00,TxWx,2013-02-06 23:17:00,
2013-02-06 18:22:00,20.0,2.0,30.05,SW,225,13.0,18.0,47,0.00,,,0.00,TxWx,2013-02-06 23:22:00,
2013-02-06 18:27:00,20.0,2.0,30.05,SW,225,11.0,12.0,47,0.00,,,0.00,TxWx,2013-02-06 23:27:00,
2013-02-06 18:32:00,20.0,2.0,30.05,WSW,247,11.0,16.0,47,0.00,,,0.00,TxWx,2013-02-06 23:32:00,
2013-02-06 18:37:00,20.0,2.0,30.05,SW,225,8.0,10.0,48,0.00,,,0.00,TxWx,2013-02-06 23:37:00,
2013-02-06 18:42:00,20.0,3.0,30.05,WSW,247,10.0,10.0,49,0.00,,,0.00,TxWx,2013-02-06 23:42:00,
2013-02-06 18:47:00,19.0,2.0,30.06,WSW,247,13.0,21.0,49,0.00,,,0.00,TxWx,2013-02-06 23:47:00,
2013-02-06 18:52:00,19.0,2.0,30.07,SW,225,12.0,14.0,50,0.00,,,0.00,TxWx,2013-02-06 23:52:00,
2013-02-06 18:57:00,19.0,2.0,30.07,WNW,292,12.0,16.0,50,0.00,,,0.00,TxWx,2013-02-06 23:57:00,
2013-02-06 19:02:00,19.0,3.0,30.07,WSW,247,13.0,17.0,51,0.00,,,0.00,TxWx,2013-02-07 00:02:00,
2013-02-06 19:08:00,19.0,3.0,30.07,WSW,247,6.0,8.0,52,0.00,,,0.00,TxWx,2013-02-07 00:08:00,
2013-02-06 19:13:00,19.0,3.0,30.08,West,270,11.0,11.0,53,0.00,,,0.00,TxWx,2013-02-07 00:13:00,
2013-02-06 19:18:00,19.0,4.0,30.08,SW,225,10.0,21.0,54,0.00,,,0.00,TxWx,2013-02-07 00:18:00,
2013-02-06 19:23:00,19.0,4.0,30.08,WSW,247,9.0,11.0,54,0.00,,,0.00,TxWx,2013-02-07 00:23:00,
2013-02-06 19:28:00,18.0,3.0,30.07,SW,225,14.0,15.0,55,0.00,,,0.00,TxWx,2013-02-07 00:28:00,
2013-02-06 19:33:00,18.0,4.0,30.08,WSW,247,13.0,21.0,55,0.00,,,0.00,TxWx,2013-02-07 00:33:00,
2013-02-06 19:38:00,18.0,4.0,30.08,SW,225,8.0,8.0,56,0.00,,,0.00,TxWx,2013-02-07 00:38:00,
2013-02-06 19:43:00,18.0,4.0,30.08,West,270,13.0,13.0,56,0.00,,,0.00,TxWx,2013-02-07 00:43:00,
2013-02-06 19:48:00,18.0,4.0,30.09,SW,225,10.0,11.0,57,0.00,,,0.00,TxWx,2013-02-07 00:48:00,
2013-02-06 19:53:00,18.0,5.0,30.09,WSW,247,7.0,8.0,58,0.00,,,0.00,TxWx,2013-02-07 00:53:00,
2013-02-06 19:58:00,18.0,5.0,30.09,West,270,5.0,12.0,58,0.00,,,0.00,TxWx,2013-02-07 00:58:00,
2013-02-06 20:03:00,18.0,5.0,30.09,SSW,202,5.0,9.0,59,0.00,,,0.00,TxWx,2013-02-07 01:03:00,
2013-02-06 20:08:00,17.0,4.0,30.10,SW,225,6.0,7.0,59,0.00,,,0.00,TxWx,2013-02-07 01:08:00,
2013-02-06 20:13:00,18.0,5.0,30.10,WSW,247,18.0,18.0,60,0.00,,,0.00,TxWx,2013-02-07 01:13:00,
2013-02-06 20:19:00,17.0,5.0,30.10,West,270,5.0,12.0,60,0.00,,,0.00,TxWx,2013-02-07 01:19:00,
2013-02-06 20:24:00,17.0,5.0,30.10,West,270,8.0,8.0,61,0.00,,,0.00,TxWx,2013-02-07 01:24:00,
2013-02-06 20:29:00,17.0,5.0,30.10,SW,225,5.0,5.0,61,0.00,,,0.00,TxWx,2013-02-07 01:29:00,
2013-02-06 20:34:00,17.0,5.0,30.11,WSW,247,7.0,10.0,62,0.00,,,0.00,TxWx,2013-02-07 01:34:00,
2013-02-06 20:39:00,17.0,5.0,30.11,West,270,8.0,8.0,62,0.00,,,0.00,TxWx,2013-02-07 01:39:00,
2013-02-06 20:44:00,17.0,5.0,30.11,WNW,292,6.0,12.0,62,0.00,,,0.00,TxWx,2013-02-07 01:44:00,
2013-02-06 20:49:00,17.0,5.0,30.12,West,270,7.0,9.0,63,0.00,,,0.00,TxWx,2013-02-07 01:49:00,
2013-02-06 20:54:00,17.0,5.0,30.12,SW,225,11.0,14.0,63,0.00,,,0.00,TxWx,2013-02-07 01:54:00,
2013-02-06 20:59:00,17.0,6.0,30.12,WSW,247,10.0,14.0,63,0.00,,,0.00,TxWx,2013-02-07 01:59:00,
2013-02-06 21:04:00,16.0,5.0,30.12,SW,225,5.0,7.0,63,0.00,,,0.00,TxWx,2013-02-07 02:04:00,
2013-02-06 21:09:00,17.0,6.0,30.12,WSW,247,8.0,10.0,64,0.00,,,0.00,TxWx,2013-02-07 02:09:00,
2013-02-06 21:14:00,16.0,5.0,30.13,West,270,5.0,6.0,64,0.00,,,0.00,TxWx,2013-02-07 02:14:00,
2013-02-06 21:19:00,16.0,5.0,30.14,SW,225,5.0,6.0,65,0.00,,,0.00,TxWx,2013-02-07 02:19:00,
2013-02-06 21:24:00,16.0,5.0,30.14,WSW,247,5.0,8.0,65,0.00,,,0.00,TxWx,2013-02-07 02:24:00,
2013-02-06 21:30:00,16.0,5.0,30.14,SW,225,13.0,14.0,65,0.00,,,0.00,TxWx,2013-02-07 02:30:00,
2013-02-06 21:35:00,16.0,5.0,30.14,WNW,292,7.0,10.0,66,0.00,,,0.00,TxWx,2013-02-07 02:35:00,
2013-02-06 21:40:00,16.0,6.0,30.14,WSW,247,12.0,15.0,66,0.00,,,0.00,TxWx,2013-02-07 02:40:00,
2013-02-06 21:45:00,16.0,6.0,30.14,West,270,11.0,12.0,67,0.00,,,0.00,TxWx,2013-02-07 02:45:00,
2013-02-06 21:50:00,16.0,6.0,30.14,WSW,247,10.0,14.0,67,0.00,,,0.00,TxWx,2013-02-07 02:50:00,
2013-02-06 21:55:00,16.0,6.0,30.14,West,270,6.0,10.0,67,0.00,,,0.00,TxWx,2013-02-07 02:55:00,
2013-02-06 22:00:00,16.0,6.0,30.14,West,270,6.0,11.0,68,0.00,,,0.00,TxWx,2013-02-07 03:00:00,
2013-02-06 22:05:00,16.0,6.0,30.15,SW,225,7.0,7.0,68,0.00,,,0.00,TxWx,2013-02-07 03:05:00,
2013-02-06 22:10:00,16.0,6.0,30.15,SW,225,13.0,13.0,68,0.00,,,0.00,TxWx,2013-02-07 03:10:00,
2013-02-06 22:15:00,16.0,6.0,30.14,WNW,292,5.0,14.0,69,0.00,,,0.00,TxWx,2013-02-07 03:15:00,
2013-02-06 22:20:00,16.0,6.0,30.15,NW,315,6.0,11.0,69,0.00,,,0.00,TxWx,2013-02-07 03:20:00,
2013-02-06 22:25:00,16.0,6.0,30.15,WSW,247,8.0,8.0,69,0.00,,,0.00,TxWx,2013-02-07 03:25:00,
2013-02-06 22:30:00,15.0,6.0,30.15,WSW,247,12.0,12.0,69,0.00,,,0.00,TxWx,2013-02-07 03:30:00,
2013-02-06 22:35:00,16.0,7.0,30.16,SSW,202,8.0,11.0,69,0.00,,,0.00,TxWx,2013-02-07 03:35:00,
2013-02-06 22:41:00,16.0,7.0,30.16,West,270,7.0,10.0,70,0.00,,,0.00,TxWx,2013-02-07 03:41:00,
2013-02-06 22:46:00,15.0,7.0,30.16,SW,225,8.0,8.0,70,0.00,,,0.00,TxWx,2013-02-07 03:46:00,
2013-02-06 22:51:00,15.0,6.0,30.15,SSW,202,11.0,11.0,70,0.00,,,0.00,TxWx,2013-02-07 03:51:00,
2013-02-06 22:56:00,15.0,6.0,30.15,WNW,292,12.0,16.0,70,0.00,,,0.00,TxWx,2013-02-07 03:56:00,
2013-02-06 23:01:00,15.0,6.0,30.15,West,270,11.0,11.0,71,0.00,,,0.00,TxWx,2013-02-07 04:01:00,
2013-02-06 23:06:00,15.0,6.0,30.15,West,270,6.0,12.0,71,0.00,,,0.00,TxWx,2013-02-07 04:06:00,
2013-02-06 23:11:00,15.0,6.0,30.15,SW,225,10.0,16.0,71,0.00,,,0.00,TxWx,2013-02-07 04:11:00,
2013-02-06 23:16:00,15.0,6.0,30.15,SW,225,11.0,11.0,72,0.00,,,0.00,TxWx,2013-02-07 04:16:00,
2013-02-06 23:21:00,15.0,6.0,30.15,SW,225,11.0,11.0,72,0.00,,,0.00,TxWx,2013-02-07 04:21:00,
2013-02-06 23:26:00,15.0,7.0,30.15,WSW,247,11.0,11.0,72,0.00,,,0.00,TxWx,2013-02-07 04:26:00,
2013-02-06 23:31:00,15.0,7.0,30.14,West,270,6.0,8.0,72,0.00,,,0.00,TxWx,2013-02-07 04:31:00,
2013-02-06 23:36:00,15.0,7.0,30.15,WSW,247,8.0,8.0,72,0.00,,,0.00,TxWx,2013-02-07 04:36:00,
2013-02-06 23:41:00,15.0,6.0,30.14,SW,225,6.0,7.0,73,0.00,,,0.00,TxWx,2013-02-07 04:41:00,
2013-02-06 23:46:00,15.0,7.0,30.15,WSW,247,6.0,6.0,73,0.00,,,0.00,TxWx,2013-02-07 04:46:00,
2013-02-06 23:52:00,14.0,7.0,30.15,West,270,5.0,6.0,73,0.00,,,0.00,TxWx,2013-02-07 04:52:00,
2013-02-06 23:57:00,14.0,6.0,30.15,WSW,247,6.0,10.0,73,0.00,,,0.00,TxWx,2013-02-07 04:57:00,